Time;durP1;ratioP1;P1;durP2;ratioP2;P2;SDS_P1;SDS_P2;PMS_P1;PMS_P2;Temp;Humidity;BMP_temperature;BMP_pressure;BME280_temperature;BME280_humidity;BME280_pressure;Samples;Min_cycle;Max_cycle;Signal;HPM_P1;HPM_P2
2023/12/13 00:00:31;;;;;;;9.23;5.55;;;;;;;;;;5143230;27;20058;-57
2023/12/13 00:02:58;;;;;;;11.00;6.03;;;;;;;;;;5145771;27;20570;-57
2023/12/13 00:05:24;;;;;;;9.88;5.97;;;;;;;;;;5144798;27;20055;-56
2023/12/13 00:07:51;;;;;;;12.80;6.10;;;;;;;;;;5142304;27;20047;-57
2023/12/13 00:10:18;;;;;;;10.32;6.43;;;;;;;;;;5144940;27;20131;-57
2023/12/13 00:12:44;;;;;;;10.40;6.78;;;;;;;;;;5143282;27;20062;-57
2023/12/13 00:15:12;;;;;;;12.55;6.43;;;;;;;;;;5143462;27;20093;-56
2023/12/13 00:17:38;;;;;;;9.95;6.60;;;;;;;;;;5144658;27;20479;-57
2023/12/13 00:20:05;;;;;;;11.57;6.00;;;;;;;;;;5143449;27;20139;-58
2023/12/13 00:22:32;;;;;;;10.07;6.68;;;;;;;;;;5145176;27;20051;-57
2023/12/13 00:24:58;;;;;;;11.00;6.93;;;;;;;;;;5146122;27;20076;-56
2023/12/13 00:27:25;;;;;;;13.38;6.65;;;;;;;;;;5142049;27;20139;-55
2023/12/13 00:29:51;;;;;;;11.80;7.32;;;;;;;;;;5143539;27;20051;-57
2023/12/13 00:32:18;;;;;;;11.25;6.63;;;;;;;;;;5138573;27;20051;-56
2023/12/13 00:34:44;;;;;;;8.38;6.25;;;;;;;;;;5135598;27;20104;-55
2023/12/13 00:37:11;;;;;;;12.25;6.82;;;;;;;;;;5136468;27;20055;-55
2023/12/13 00:39:38;;;;;;;10.15;6.88;;;;;;;;;;5134288;27;20074;-56
2023/12/13 00:42:05;;;;;;;10.88;6.95;;;;;;;;;;5135364;27;20047;-56
2023/12/13 00:44:31;;;;;;;9.63;7.30;;;;;;;;;;5135857;27;20392;-57
2023/12/13 00:46:57;;;;;;;11.98;7.22;;;;;;;;;;5136651;27;20558;-58
2023/12/13 00:49:24;;;;;;;13.07;7.90;;;;;;;;;;5136033;27;20054;-57
2023/12/13 00:51:50;;;;;;;12.45;7.80;;;;;;;;;;5136167;27;20879;-56
2023/12/13 00:54:17;;;;;;;13.57;8.25;;;;;;;;;;5135016;27;20142;-56
2023/12/13 00:56:43;;;;;;;14.60;8.90;;;;;;;;;;5135839;27;20063;-57
2023/12/13 00:59:09;;;;;;;12.93;8.35;;;;;;;;;;5135855;27;20660;-56
2023/12/13 01:01:43;;;;;;;14.60;9.40;;;;;;;;;;5135350;27;20488;-56
2023/12/13 01:04:10;;;;;;;12.32;8.18;;;;;;;;;;5137549;27;20055;-59
2023/12/13 01:06:36;;;;;;;13.95;8.95;;;;;;;;;;5139603;27;20062;-59
2023/12/13 01:09:03;;;;;;;13.50;8.35;;;;;;;;;;5145449;27;20057;-59
2023/12/13 01:11:30;;;;;;;15.55;8.05;;;;;;;;;;5140501;27;20436;-60
2023/12/13 01:13:56;;;;;;;12.27;8.00;;;;;;;;;;5143711;27;20053;-58
2023/12/13 01:16:23;;;;;;;14.75;8.88;;;;;;;;;;5141149;27;20593;-57
2023/12/13 01:18:49;;;;;;;13.90;8.30;;;;;;;;;;5144098;27;20075;-59
2023/12/13 01:21:15;;;;;;;17.30;8.50;;;;;;;;;;5144544;27;20170;-59
2023/12/13 01:23:42;;;;;;;12.27;8.57;;;;;;;;;;5143632;27;20087;-58
2023/12/13 01:26:08;;;;;;;16.67;7.78;;;;;;;;;;5143628;27;20479;-59
2023/12/13 01:28:35;;;;;;;17.17;7.70;;;;;;;;;;5140701;27;20050;-57
2023/12/13 01:31:06;;;;;;;17.33;8.38;;;;;;;;;;5143600;27;20054;-59
2023/12/13 01:33:33;;;;;;;17.02;8.98;;;;;;;;;;5142390;27;20059;-60
2023/12/13 01:36:02;;;;;;;12.50;8.45;;;;;;;;;;5140542;27;20055;-59
2023/12/13 01:38:29;;;;;;;12.13;7.57;;;;;;;;;;5143234;27;20051;-59
2023/12/13 01:40:55;;;;;;;14.77;7.90;;;;;;;;;;5138431;27;20134;-59
2023/12/13 01:43:39;;;;;;;13.38;8.30;;;;;;;;;;5139299;27;20062;-57
2023/12/13 01:46:06;;;;;;;15.68;7.82;;;;;;;;;;5137633;27;20047;-57
2023/12/13 01:48:32;;;;;;;13.73;8.15;;;;;;;;;;5143899;27;20051;-57
2023/12/13 01:50:59;;;;;;;16.38;7.60;;;;;;;;;;5143680;27;20051;-58
2023/12/13 01:53:26;;;;;;;12.32;7.35;;;;;;;;;;5143275;27;20424;-59
2023/12/13 01:55:54;;;;;;;12.75;8.27;;;;;;;;;;5141195;27;20047;-58
2023/12/13 01:58:21;;;;;;;16.40;8.13;;;;;;;;;;5143004;27;20647;-57
2023/12/13 02:00:48;;;;;;;14.00;8.32;;;;;;;;;;5144929;27;20049;-59
2023/12/13 02:03:15;;;;;;;12.82;7.97;;;;;;;;;;5144828;27;20559;-59
2023/12/13 02:05:43;;;;;;;15.57;8.65;;;;;;;;;;5138229;27;20055;-57
2023/12/13 02:08:09;;;;;;;15.25;8.85;;;;;;;;;;5141174;27;20479;-58
2023/12/13 02:10:36;;;;;;;14.02;8.50;;;;;;;;;;5142986;27;20174;-58
2023/12/13 02:13:03;;;;;;;18.40;8.98;;;;;;;;;;5144611;27;20550;-57
2023/12/13 02:15:35;;;;;;;11.07;7.90;;;;;;;;;;5141066;27;20513;-57
2023/12/13 02:18:02;;;;;;;14.35;8.10;;;;;;;;;;5142771;27;20467;-58
2023/12/13 02:20:29;;;;;;;14.00;9.27;;;;;;;;;;5139715;27;20048;-59
2023/12/13 02:22:55;;;;;;;13.63;8.60;;;;;;;;;;5142997;27;20104;-59
2023/12/13 02:25:26;;;;;;;16.15;8.73;;;;;;;;;;5141708;27;20051;-57
2023/12/13 02:27:52;;;;;;;14.57;8.70;;;;;;;;;;5137738;27;20047;-58
2023/12/13 02:30:19;;;;;;;16.00;8.25;;;;;;;;;;5141241;27;20158;-58
2023/12/13 02:32:50;;;;;;;13.48;7.68;;;;;;;;;;5142349;27;20513;-57
2023/12/13 02:35:16;;;;;;;15.57;8.57;;;;;;;;;;5143635;27;20472;-58
2023/12/13 02:37:45;;;;;;;15.18;8.77;;;;;;;;;;5142094;27;20160;-58
2023/12/13 02:40:13;;;;;;;17.40;8.48;;;;;;;;;;5142084;27;20665;-58
2023/12/13 02:42:39;;;;;;;13.25;8.77;;;;;;;;;;5141705;27;20140;-57
2023/12/13 02:45:08;;;;;;;14.25;8.63;;;;;;;;;;5139746;27;20145;-56
2023/12/13 02:47:35;;;;;;;15.40;9.10;;;;;;;;;;5138909;27;20204;-57
2023/12/13 02:50:02;;;;;;;15.65;7.95;;;;;;;;;;5140302;27;20120;-57
2023/12/13 02:52:28;;;;;;;12.82;7.50;;;;;;;;;;5139130;27;20091;-56
2023/12/13 02:54:55;;;;;;;17.63;8.35;;;;;;;;;;5142456;27;20051;-58
2023/12/13 02:57:21;;;;;;;12.60;7.95;;;;;;;;;;5144152;27;20147;-58
2023/12/13 02:59:48;;;;;;;12.73;7.45;;;;;;;;;;5140222;27;20428;-58
2023/12/13 03:02:14;;;;;;;13.65;8.23;;;;;;;;;;5142261;27;20051;-59
2023/12/13 03:04:40;;;;;;;10.68;7.40;;;;;;;;;;5141839;27;20180;-57
2023/12/13 03:07:07;;;;;;;18.60;8.85;;;;;;;;;;5143279;27;20497;-58
2023/12/13 03:09:34;;;;;;;14.82;8.07;;;;;;;;;;5141692;27;20155;-58
2023/12/13 03:12:00;;;;;;;12.43;7.80;;;;;;;;;;5141373;27;20100;-57
2023/12/13 03:14:26;;;;;;;15.50;8.02;;;;;;;;;;5139821;27;20506;-58
2023/12/13 03:16:53;;;;;;;15.25;8.25;;;;;;;;;;5139784;27;20058;-57
2023/12/13 03:19:19;;;;;;;12.55;7.50;;;;;;;;;;5142553;27;20509;-58
2023/12/13 03:21:46;;;;;;;13.70;7.78;;;;;;;;;;5140548;27;20551;-57
2023/12/13 03:24:13;;;;;;;12.63;8.32;;;;;;;;;;5142643;27;20055;-58
2023/12/13 03:26:39;;;;;;;14.15;8.32;;;;;;;;;;5142583;27;20542;-58
2023/12/13 03:29:05;;;;;;;11.88;7.72;;;;;;;;;;5140654;27;20125;-57
2023/12/13 03:31:32;;;;;;;13.48;8.68;;;;;;;;;;5141497;27;20108;-58
2023/12/13 03:34:00;;;;;;;14.30;8.32;;;;;;;;;;5142655;27;20055;-58
2023/12/13 03:36:27;;;;;;;15.35;8.48;;;;;;;;;;5144783;27;20051;-56
2023/12/13 03:38:53;;;;;;;15.07;8.40;;;;;;;;;;5155789;27;20697;-57
2023/12/13 03:41:19;;;;;;;12.10;8.75;;;;;;;;;;5144993;27;20055;-59
2023/12/13 03:43:46;;;;;;;17.88;9.10;;;;;;;;;;5144591;27;20479;-58
2023/12/13 03:46:13;;;;;;;15.63;8.30;;;;;;;;;;5144926;27;20054;-58
2023/12/13 03:48:39;;;;;;;14.27;9.20;;;;;;;;;;5144708;27;20146;-58
2023/12/13 03:51:06;;;;;;;15.27;9.27;;;;;;;;;;5145233;27;20051;-58
2023/12/13 03:53:32;;;;;;;15.65;9.43;;;;;;;;;;5145804;27;20051;-57
2023/12/13 03:55:59;;;;;;;13.10;9.70;;;;;;;;;;5151493;27;20058;-58
2023/12/13 03:58:26;;;;;;;19.65;10.40;;;;;;;;;;5152067;27;20562;-58
2023/12/13 04:00:52;;;;;;;15.00;9.15;;;;;;;;;;5142680;27;20146;-57
2023/12/13 04:03:19;;;;;;;17.20;10.38;;;;;;;;;;5144920;27;20047;-59
2023/12/13 04:05:46;;;;;;;16.17;10.35;;;;;;;;;;5144125;27;20488;-58
2023/12/13 04:08:12;;;;;;;18.08;10.63;;;;;;;;;;5145385;27;20347;-58
2023/12/13 04:10:39;;;;;;;19.60;9.93;;;;;;;;;;5144800;27;20057;-58
2023/12/13 04:13:05;;;;;;;22.70;10.43;;;;;;;;;;5143772;27;20360;-58
2023/12/13 04:15:31;;;;;;;20.33;10.85;;;;;;;;;;5144258;27;20055;-58
2023/12/13 04:17:58;;;;;;;21.48;10.90;;;;;;;;;;5142415;27;20047;-58
2023/12/13 04:20:24;;;;;;;19.48;10.07;;;;;;;;;;5132523;27;20047;-57
2023/12/13 04:22:51;;;;;;;20.48;10.68;;;;;;;;;;5125739;27;20190;-59
2023/12/13 04:25:17;;;;;;;17.90;10.77;;;;;;;;;;5140608;27;20058;-58
2023/12/13 04:27:47;;;;;;;19.38;11.57;;;;;;;;;;5143013;27;20055;-57
2023/12/13 04:30:14;;;;;;;18.48;10.55;;;;;;;;;;5143264;27;20062;-58
2023/12/13 04:32:41;;;;;;;18.08;10.27;;;;;;;;;;5142436;27;20047;-58
2023/12/13 04:35:08;;;;;;;22.65;11.50;;;;;;;;;;5144594;27;20051;-58
2023/12/13 04:37:35;;;;;;;18.80;10.07;;;;;;;;;;5143859;27;20100;-57
2023/12/13 04:40:03;;;;;;;22.27;11.43;;;;;;;;;;5144699;27;20058;-57
2023/12/13 04:42:29;;;;;;;18.10;11.98;;;;;;;;;;5145281;27;20470;-59
2023/12/13 04:44:55;;;;;;;18.52;12.02;;;;;;;;;;5144744;27;20047;-58
2023/12/13 04:47:22;;;;;;;24.08;12.07;;;;;;;;;;5144490;27;20108;-58
2023/12/13 04:49:48;;;;;;;19.10;11.38;;;;;;;;;;5141768;27;20233;-58
2023/12/13 04:52:15;;;;;;;22.05;11.52;;;;;;;;;;5142612;27;20058;-56
2023/12/13 04:54:42;;;;;;;23.00;12.18;;;;;;;;;;5145106;27;20058;-57
2023/12/13 04:57:08;;;;;;;20.13;11.60;;;;;;;;;;5145257;27;20493;-58
2023/12/13 04:59:34;;;;;;;27.70;14.05;;;;;;;;;;5142986;27;20123;-59
2023/12/13 05:02:01;;;;;;;27.83;12.85;;;;;;;;;;5142459;27;20595;-58
2023/12/13 05:04:27;;;;;;;26.42;13.25;;;;;;;;;;5145486;27;20509;-58
2023/12/13 05:06:54;;;;;;;25.67;12.82;;;;;;;;;;5142183;27;20058;-57
2023/12/13 05:09:20;;;;;;;28.50;14.45;;;;;;;;;;5143970;27;20079;-58
2023/12/13 05:11:46;;;;;;;24.90;13.18;;;;;;;;;;5141565;27;20061;-57
2023/12/13 05:14:13;;;;;;;24.63;13.00;;;;;;;;;;5146032;27;20058;-55
2023/12/13 05:16:39;;;;;;;23.38;14.10;;;;;;;;;;5141894;27;20102;-58
2023/12/13 05:19:05;;;;;;;22.35;13.00;;;;;;;;;;5143896;27;20047;-56
2023/12/13 05:21:32;;;;;;;21.02;13.25;;;;;;;;;;5142057;27;20174;-55
2023/12/13 05:23:59;;;;;;;28.90;14.10;;;;;;;;;;5144227;27;20527;-55
2023/12/13 05:26:25;;;;;;;27.83;13.40;;;;;;;;;;5144079;27;20445;-58
2023/12/13 05:28:51;;;;;;;24.80;13.43;;;;;;;;;;5144481;27;20079;-57
2023/12/13 05:31:21;;;;;;;23.50;13.95;;;;;;;;;;5140676;27;20048;-57
2023/12/13 05:33:48;;;;;;;20.40;13.25;;;;;;;;;;5140349;27;20146;-58
2023/12/13 05:36:15;;;;;;;30.67;13.95;;;;;;;;;;5144701;27;20058;-58
2023/12/13 05:38:43;;;;;;;25.83;14.10;;;;;;;;;;5144633;27;20463;-59
2023/12/13 05:41:09;;;;;;;23.90;13.77;;;;;;;;;;5144022;27;20307;-57
2023/12/13 05:43:36;;;;;;;26.67;14.02;;;;;;;;;;5143650;27;20418;-57
2023/12/13 05:46:04;;;;;;;27.08;14.30;;;;;;;;;;5144364;27;20110;-59
2023/12/13 05:48:30;;;;;;;24.98;13.65;;;;;;;;;;5143117;27;20175;-57
2023/12/13 05:50:57;;;;;;;26.40;13.90;;;;;;;;;;5141584;27;20083;-59
2023/12/13 05:53:23;;;;;;;27.25;13.85;;;;;;;;;;5132040;27;20275;-58
2023/12/13 05:55:50;;;;;;;25.10;13.18;;;;;;;;;;5131997;27;20076;-59
2023/12/13 05:58:18;;;;;;;23.80;13.40;;;;;;;;;;5140308;27;20510;-56
2023/12/13 06:00:45;;;;;;;25.05;13.77;;;;;;;;;;5139575;27;20503;-58
2023/12/13 06:03:11;;;;;;;25.02;12.35;;;;;;;;;;5134158;27;20047;-58
2023/12/13 06:05:38;;;;;;;28.45;13.32;;;;;;;;;;5145383;27;20086;-59
2023/12/13 06:08:04;;;;;;;24.30;12.55;;;;;;;;;;5142936;27;20134;-58
2023/12/13 06:10:31;;;;;;;26.02;13.02;;;;;;;;;;5143146;27;20079;-59
2023/12/13 06:12:57;;;;;;;23.27;13.38;;;;;;;;;;5140703;27;20598;-59
2023/12/13 06:15:24;;;;;;;28.52;12.00;;;;;;;;;;5134460;27;20538;-57
2023/12/13 06:17:50;;;;;;;27.65;13.18;;;;;;;;;;5135368;27;20485;-59
2023/12/13 06:20:16;;;;;;;23.90;13.63;;;;;;;;;;5133282;27;20172;-58
2023/12/13 06:22:43;;;;;;;30.13;13.82;;;;;;;;;;5143853;27;20063;-58
2023/12/13 06:25:09;;;;;;;29.00;12.68;;;;;;;;;;5143654;27;20493;-57
2023/12/13 06:27:36;;;;;;;25.27;13.15;;;;;;;;;;5143005;27;20055;-58
2023/12/13 06:30:02;;;;;;;22.98;11.95;;;;;;;;;;5129768;27;20051;-58
2023/12/13 06:32:29;;;;;;;24.70;13.38;;;;;;;;;;5141287;27;20532;-57
2023/12/13 06:34:55;;;;;;;20.58;12.57;;;;;;;;;;5139768;27;20191;-58
2023/12/13 06:37:22;;;;;;;27.83;12.90;;;;;;;;;;5143639;27;20051;-57
2023/12/13 06:39:49;;;;;;;25.13;12.73;;;;;;;;;;5144023;27;20055;-58
2023/12/13 06:42:18;;;;;;;26.08;12.73;;;;;;;;;;5135719;27;20047;-58
2023/12/13 06:44:44;;;;;;;22.92;13.05;;;;;;;;;;5134839;27;20039;-56
2023/12/13 06:47:11;;;;;;;22.33;13.85;;;;;;;;;;5141633;27;20063;-57
2023/12/13 06:49:38;;;;;;;24.25;12.07;;;;;;;;;;5142648;27;20134;-56
2023/12/13 06:52:04;;;;;;;26.00;13.40;;;;;;;;;;5137584;27;20082;-57
2023/12/13 06:54:31;;;;;;;25.58;12.77;;;;;;;;;;5147446;27;20131;-57
2023/12/13 06:56:57;;;;;;;22.75;12.07;;;;;;;;;;5141477;27;20104;-56
2023/12/13 06:59:24;;;;;;;22.33;12.98;;;;;;;;;;5141333;27;20087;-56
2023/12/13 07:01:50;;;;;;;23.25;13.45;;;;;;;;;;5141456;27;20380;-56
2023/12/13 07:04:17;;;;;;;24.85;13.07;;;;;;;;;;5142230;27;20166;-55
2023/12/13 07:06:44;;;;;;;27.85;12.82;;;;;;;;;;5142201;27;20098;-57
2023/12/13 07:09:10;;;;;;;27.52;12.93;;;;;;;;;;5143573;27;20249;-56
2023/12/13 07:11:37;;;;;;;24.58;12.10;;;;;;;;;;5145851;27;20051;-55
2023/12/13 07:14:03;;;;;;;22.35;11.43;;;;;;;;;;5145775;27;20050;-56
2023/12/13 07:16:30;;;;;;;26.15;12.43;;;;;;;;;;5145568;27;20124;-56
2023/12/13 07:18:57;;;;;;;26.98;12.75;;;;;;;;;;5145821;27;20059;-56
2023/12/13 07:21:23;;;;;;;22.15;13.13;;;;;;;;;;5145690;27;20520;-57
2023/12/13 07:23:49;;;;;;;31.05;13.30;;;;;;;;;;5129825;27;20101;-55
2023/12/13 07:26:16;;;;;;;23.63;12.43;;;;;;;;;;5138504;27;20070;-56
2023/12/13 07:28:44;;;;;;;26.33;12.95;;;;;;;;;;5146337;27;20055;-56
2023/12/13 07:31:10;;;;;;;27.42;12.52;;;;;;;;;;5146146;27;20047;-56
2023/12/13 07:33:38;;;;;;;25.65;13.00;;;;;;;;;;5145324;27;20124;-55
2023/12/13 07:36:05;;;;;;;27.05;13.40;;;;;;;;;;5145091;27;20581;-54
2023/12/13 07:38:31;;;;;;;25.85;13.43;;;;;;;;;;5144381;27;20051;-58
2023/12/13 07:40:58;;;;;;;29.10;13.82;;;;;;;;;;5146697;27;20104;-57
2023/12/13 07:43:26;;;;;;;32.08;14.63;;;;;;;;;;5145799;27;20043;-55
2023/12/13 07:45:54;;;;;;;32.85;13.82;;;;;;;;;;5144674;27;20149;-56
2023/12/13 07:48:21;;;;;;;28.75;13.00;;;;;;;;;;5145381;27;20424;-59
2023/12/13 07:50:56;;;;;;;27.15;13.93;;;;;;;;;;5144306;27;20138;-55
2023/12/13 07:53:24;;;;;;;25.70;12.60;;;;;;;;;;5145121;27;20137;-57
2023/12/13 07:55:51;;;;;;;29.23;13.43;;;;;;;;;;5145164;27;20063;-55
2023/12/13 07:58:18;;;;;;;29.60;15.15;;;;;;;;;;5144748;27;20062;-55
2023/12/13 08:00:46;;;;;;;24.60;12.60;;;;;;;;;;5144821;27;20484;-56
2023/12/13 08:03:12;;;;;;;30.98;14.25;;;;;;;;;;5145148;27;20047;-55
2023/12/13 08:05:39;;;;;;;27.35;13.38;;;;;;;;;;5145473;27;20051;-58
2023/12/13 08:08:05;;;;;;;25.00;13.30;;;;;;;;;;5144549;27;20078;-58
2023/12/13 08:10:32;;;;;;;25.95;13.45;;;;;;;;;;5144161;27;20043;-57
2023/12/13 08:12:58;;;;;;;30.98;14.50;;;;;;;;;;5144828;27;20109;-57
2023/12/13 08:15:25;;;;;;;33.00;14.32;;;;;;;;;;5144864;27;20051;-57
2023/12/13 08:17:51;;;;;;;29.15;13.32;;;;;;;;;;5143892;27;20051;-56
2023/12/13 08:20:18;;;;;;;26.60;12.75;;;;;;;;;;5144699;27;20051;-56
2023/12/13 08:22:46;;;;;;;30.42;14.35;;;;;;;;;;5144190;27;20052;-57
2023/12/13 08:25:12;;;;;;;26.48;13.57;;;;;;;;;;5145083;27;20190;-56
2023/12/13 08:27:39;;;;;;;24.15;13.13;;;;;;;;;;5144990;27;20496;-58
2023/12/13 08:30:06;;;;;;;32.90;13.95;;;;;;;;;;5144470;27;20066;-57
2023/12/13 08:32:32;;;;;;;26.58;13.32;;;;;;;;;;5143886;27;20497;-58
2023/12/13 08:34:58;;;;;;;31.30;14.07;;;;;;;;;;5144166;27;20051;-56
2023/12/13 08:37:25;;;;;;;30.63;14.23;;;;;;;;;;5144829;27;20059;-58
2023/12/13 08:39:52;;;;;;;30.77;13.57;;;;;;;;;;5143933;27;20051;-58
2023/12/13 08:42:19;;;;;;;26.27;12.80;;;;;;;;;;5144543;27;20534;-56
2023/12/13 08:44:46;;;;;;;31.27;12.98;;;;;;;;;;5129301;27;20688;-56
2023/12/13 08:47:13;;;;;;;27.98;14.32;;;;;;;;;;5143171;27;20656;-58
2023/12/13 08:49:39;;;;;;;32.80;12.10;;;;;;;;;;5143066;27;20057;-56
2023/12/13 08:52:05;;;;;;;27.15;13.38;;;;;;;;;;5143615;27;20486;-56
2023/12/13 08:54:33;;;;;;;24.90;12.73;;;;;;;;;;5144120;27;20055;-55
2023/12/13 08:56:59;;;;;;;31.55;13.43;;;;;;;;;;5143891;27;20055;-54
2023/12/13 08:59:26;;;;;;;31.23;13.75;;;;;;;;;;5144470;27;20047;-57
2023/12/13 09:01:52;;;;;;;30.50;14.00;;;;;;;;;;5143743;27;20521;-56
2023/12/13 09:04:18;;;;;;;36.25;13.93;;;;;;;;;;5144227;27;20051;-55
2023/12/13 09:06:45;;;;;;;28.58;12.15;;;;;;;;;;5144662;27;20059;-57
2023/12/13 09:09:12;;;;;;;33.38;13.38;;;;;;;;;;5144559;27;20048;-56
2023/12/13 09:11:38;;;;;;;22.08;13.23;;;;;;;;;;5143569;27;20051;-57
2023/12/13 09:14:05;;;;;;;27.38;12.82;;;;;;;;;;5143659;27;20051;-56
2023/12/13 09:16:31;;;;;;;28.45;13.00;;;;;;;;;;5144250;27;20047;-57
2023/12/13 09:18:58;;;;;;;25.23;12.77;;;;;;;;;;5144265;27;20524;-56
2023/12/13 09:21:25;;;;;;;28.92;13.27;;;;;;;;;;5143521;27;20047;-56
2023/12/13 09:23:51;;;;;;;29.30;12.35;;;;;;;;;;5143299;27;20047;-56
2023/12/13 09:26:18;;;;;;;25.38;12.85;;;;;;;;;;5144215;27;20055;-55
2023/12/13 09:28:44;;;;;;;25.30;12.00;;;;;;;;;;5143206;27;20662;-57
2023/12/13 09:31:12;;;;;;;23.83;12.18;;;;;;;;;;5144489;27;20058;-57
2023/12/13 09:33:39;;;;;;;20.83;11.63;;;;;;;;;;5142143;27;20108;-56
2023/12/13 09:36:07;;;;;;;27.33;12.00;;;;;;;;;;5143670;27;20131;-57
2023/12/13 09:38:33;;;;;;;30.45;12.68;;;;;;;;;;5142733;27;20492;-56
2023/12/13 09:40:59;;;;;;;24.63;12.07;;;;;;;;;;5143657;27;20043;-56
2023/12/13 09:43:26;;;;;;;27.27;12.02;;;;;;;;;;5142903;27;20055;-57
2023/12/13 09:45:53;;;;;;;25.50;12.18;;;;;;;;;;5143809;27;20529;-56
2023/12/13 09:48:24;;;;;;;25.08;11.85;;;;;;;;;;5143847;27;20078;-55
2023/12/13 09:50:57;;;;;;;31.23;12.02;;;;;;;;;;5143356;27;20055;-56
2023/12/13 09:53:24;;;;;;;21.92;10.65;;;;;;;;;;5142702;27;20154;-56
2023/12/13 09:55:52;;;;;;;26.75;11.52;;;;;;;;;;5143206;27;20051;-56
2023/12/13 09:58:19;;;;;;;23.08;11.70;;;;;;;;;;5143524;27;20051;-57
2023/12/13 10:00:45;;;;;;;33.00;13.40;;;;;;;;;;5132036;27;20125;-57
2023/12/13 10:03:12;;;;;;;21.60;11.68;;;;;;;;;;5143766;27;20082;-57
2023/12/13 10:05:40;;;;;;;28.65;11.20;;;;;;;;;;5143294;27;20104;-57
2023/12/13 10:08:10;;;;;;;34.65;12.40;;;;;;;;;;5142371;27;20143;-57
2023/12/13 10:10:37;;;;;;;31.73;11.40;;;;;;;;;;5136967;27;20055;-57
2023/12/13 10:13:03;;;;;;;19.67;11.40;;;;;;;;;;5126380;27;20567;-57
2023/12/13 10:15:32;;;;;;;25.35;12.13;;;;;;;;;;5134235;27;20058;-56
2023/12/13 10:17:59;;;;;;;22.90;10.88;;;;;;;;;;5137817;27;20055;-58
2023/12/13 10:20:26;;;;;;;22.70;10.20;;;;;;;;;;5141686;27;20508;-56
2023/12/13 10:22:53;;;;;;;25.58;11.43;;;;;;;;;;5142914;27;20055;-55
2023/12/13 10:25:22;;;;;;;22.45;11.25;;;;;;;;;;5144096;27;20083;-57
2023/12/13 10:27:53;;;;;;;25.17;11.43;;;;;;;;;;5142606;27;20411;-54
2023/12/13 10:30:19;;;;;;;27.48;14.00;;;;;;;;;;5141376;27;20481;-56
2023/12/13 10:32:46;;;;;;;25.42;13.32;;;;;;;;;;5141419;27;20079;-56
2023/12/13 10:35:12;;;;;;;21.58;10.63;;;;;;;;;;5143687;27;20407;-58
2023/12/13 10:37:40;;;;;;;24.75;11.93;;;;;;;;;;5141961;27;20599;-58
2023/12/13 10:40:10;;;;;;;21.20;11.60;;;;;;;;;;5142218;27;20430;-58
2023/12/13 10:42:39;;;;;;;18.73;10.77;;;;;;;;;;5142168;27;20582;-58
2023/12/13 10:45:08;;;;;;;26.08;11.80;;;;;;;;;;5145030;27;20085;-57
2023/12/13 10:47:35;;;;;;;22.60;13.30;;;;;;;;;;5146715;27;20059;-58
2023/12/13 10:50:03;;;;;;;22.05;11.13;;;;;;;;;;5145935;27;20062;-58
2023/12/13 10:52:30;;;;;;;21.58;11.35;;;;;;;;;;5144605;27;20565;-57
2023/12/13 10:54:57;;;;;;;20.40;11.13;;;;;;;;;;5143710;27;20055;-55
2023/12/13 10:57:23;;;;;;;24.58;11.68;;;;;;;;;;5135134;27;20559;-58
2023/12/13 10:59:51;;;;;;;20.30;11.30;;;;;;;;;;5146228;27;20051;-56
2023/12/13 11:02:18;;;;;;;20.10;11.48;;;;;;;;;;5142636;27;20365;-56
2023/12/13 11:04:46;;;;;;;24.25;12.10;;;;;;;;;;5143556;27;20055;-56
2023/12/13 11:07:13;;;;;;;19.67;12.00;;;;;;;;;;5145986;27;20144;-57
2023/12/13 11:09:51;;;;;;;20.67;12.48;;;;;;;;;;5142644;27;20053;-58
2023/12/13 11:12:18;;;;;;;24.90;12.18;;;;;;;;;;5146168;27;20058;-57
2023/12/13 11:14:51;;;;;;;21.42;12.38;;;;;;;;;;5143631;27;20054;-57
2023/12/13 11:17:21;;;;;;;20.63;12.55;;;;;;;;;;5145929;27;20055;-56
2023/12/13 11:19:51;;;;;;;28.15;13.43;;;;;;;;;;5145150;27;20053;-57
2023/12/13 11:22:22;;;;;;;27.10;12.88;;;;;;;;;;5146581;27;20487;-58
2023/12/13 11:24:59;;;;;;;18.63;11.00;;;;;;;;;;5146229;27;20051;-57
2023/12/13 11:27:29;;;;;;;24.80;11.85;;;;;;;;;;5145471;27;20428;-56
2023/12/13 11:29:56;;;;;;;23.83;12.90;;;;;;;;;;5145562;27;20523;-55
2023/12/13 11:32:32;;;;;;;22.10;12.43;;;;;;;;;;5146183;27;20047;-56
2023/12/13 11:34:58;;;;;;;23.88;11.68;;;;;;;;;;5139536;27;20060;-57
2023/12/13 11:37:27;;;;;;;28.60;13.10;;;;;;;;;;5145384;27;20051;-58
2023/12/13 11:39:56;;;;;;;25.80;13.18;;;;;;;;;;5145711;27;20055;-57
2023/12/13 11:42:22;;;;;;;26.20;13.18;;;;;;;;;;5144850;27;20541;-58
2023/12/13 11:44:49;;;;;;;30.83;13.52;;;;;;;;;;5146081;27;20489;-57
2023/12/13 11:47:17;;;;;;;21.10;12.18;;;;;;;;;;5145798;27;20047;-56
2023/12/13 11:49:43;;;;;;;22.17;12.45;;;;;;;;;;5144764;27;20058;-59
2023/12/13 11:52:10;;;;;;;26.90;12.30;;;;;;;;;;5145150;27;20495;-58
2023/12/13 11:54:37;;;;;;;24.27;12.07;;;;;;;;;;5144414;27;20047;-57
2023/12/13 11:57:13;;;;;;;21.20;12.15;;;;;;;;;;5145050;27;20558;-55
2023/12/13 11:59:39;;;;;;;24.00;12.50;;;;;;;;;;5144502;27;20103;-57
2023/12/13 12:02:07;;;;;;;22.85;12.32;;;;;;;;;;5143827;27;20405;-56
2023/12/13 12:04:33;;;;;;;18.27;11.20;;;;;;;;;;5145088;27;20047;-57
2023/12/13 12:07:00;;;;;;;24.95;11.88;;;;;;;;;;5143679;27;20062;-58
2023/12/13 12:09:26;;;;;;;22.13;11.43;;;;;;;;;;5144433;27;20079;-56
2023/12/13 12:11:53;;;;;;;20.08;11.02;;;;;;;;;;5144765;27;20051;-58
2023/12/13 12:14:25;;;;;;;22.65;12.05;;;;;;;;;;5145347;27;20509;-57
2023/12/13 12:16:51;;;;;;;25.70;12.20;;;;;;;;;;5145835;27;20257;-58
2023/12/13 12:19:18;;;;;;;22.50;12.73;;;;;;;;;;5144386;27;20062;-58
2023/12/13 12:21:45;;;;;;;18.35;9.75;;;;;;;;;;5145764;27;20493;-58
2023/12/13 12:24:11;;;;;;;14.65;8.38;;;;;;;;;;5144393;27;20051;-57
2023/12/13 12:26:38;;;;;;;16.40;8.00;;;;;;;;;;5145049;27;20151;-58
2023/12/13 12:29:04;;;;;;;15.38;6.88;;;;;;;;;;5145022;27;20126;-57
2023/12/13 12:31:31;;;;;;;13.57;6.47;;;;;;;;;;5143880;27;20050;-58
2023/12/13 12:33:58;;;;;;;19.70;8.80;;;;;;;;;;5144475;27;20066;-57
2023/12/13 12:36:25;;;;;;;10.02;7.32;;;;;;;;;;5144493;27;20525;-57
2023/12/13 12:38:52;;;;;;;16.38;8.32;;;;;;;;;;5145459;27;20104;-57
2023/12/13 12:41:18;;;;;;;13.32;7.20;;;;;;;;;;5144393;27;20524;-58
2023/12/13 12:43:49;;;;;;;13.80;7.47;;;;;;;;;;5144218;27;20112;-57
2023/12/13 12:46:16;;;;;;;16.45;7.65;;;;;;;;;;5143598;27;20489;-56
2023/12/13 12:48:43;;;;;;;15.73;8.00;;;;;;;;;;5144912;27;20055;-57
2023/12/13 12:51:10;;;;;;;15.98;8.95;;;;;;;;;;5144759;27;20497;-57
2023/12/13 12:53:36;;;;;;;16.80;9.40;;;;;;;;;;5143783;27;20616;-58
2023/12/13 12:56:03;;;;;;;14.50;9.98;;;;;;;;;;5142174;27;20047;-56
2023/12/13 12:58:32;;;;;;;13.80;9.15;;;;;;;;;;5142150;27;20058;-57
2023/12/13 13:00:58;;;;;;;16.48;10.52;;;;;;;;;;5143197;27;20135;-58
2023/12/13 13:03:26;;;;;;;16.70;9.82;;;;;;;;;;5143720;27;20061;-56
2023/12/13 13:05:53;;;;;;;20.75;10.63;;;;;;;;;;5143142;27;20055;-58
2023/12/13 13:08:19;;;;;;;16.67;9.68;;;;;;;;;;5136414;27;20070;-55
2023/12/13 13:10:47;;;;;;;19.30;9.63;;;;;;;;;;5144140;27;20047;-56
2023/12/13 13:13:13;;;;;;;20.33;10.95;;;;;;;;;;5144214;27;20047;-57
2023/12/13 13:15:40;;;;;;;17.27;10.85;;;;;;;;;;5143510;27;20092;-58
2023/12/13 13:18:06;;;;;;;20.40;10.65;;;;;;;;;;5135047;27;20059;-56
2023/12/13 13:20:34;;;;;;;19.65;11.23;;;;;;;;;;5144822;27;20051;-58
2023/12/13 13:23:00;;;;;;;21.30;12.35;;;;;;;;;;5137557;27;20503;-58
2023/12/13 13:25:27;;;;;;;18.95;11.50;;;;;;;;;;5143835;27;20062;-58
2023/12/13 13:27:53;;;;;;;21.10;11.98;;;;;;;;;;5143924;27;20047;-58
2023/12/13 13:30:20;;;;;;;22.98;13.43;;;;;;;;;;5143840;27;20047;-58
2023/12/13 13:32:46;;;;;;;22.25;11.48;;;;;;;;;;5143559;27;20051;-56
2023/12/13 13:35:13;;;;;;;20.05;12.07;;;;;;;;;;5144098;27;20074;-57
2023/12/13 13:37:40;;;;;;;23.58;12.13;;;;;;;;;;5144357;27;20079;-56
2023/12/13 13:40:07;;;;;;;21.95;13.00;;;;;;;;;;5143656;27;20130;-56
2023/12/13 13:42:33;;;;;;;20.30;12.75;;;;;;;;;;5141563;27;20524;-55
2023/12/13 13:45:01;;;;;;;22.45;12.40;;;;;;;;;;5141463;27;20130;-57
2023/12/13 13:47:27;;;;;;;19.58;12.57;;;;;;;;;;5144203;27;20495;-57
2023/12/13 13:49:54;;;;;;;20.02;12.45;;;;;;;;;;5143526;27;20062;-56
2023/12/13 13:52:21;;;;;;;20.80;13.27;;;;;;;;;;5143745;27;20081;-57
2023/12/13 13:54:47;;;;;;;20.83;11.90;;;;;;;;;;5143878;27;20581;-57
2023/12/13 13:57:14;;;;;;;25.90;12.73;;;;;;;;;;5139711;27;20102;-57
2023/12/13 13:59:41;;;;;;;27.25;13.43;;;;;;;;;;5150346;27;20043;-56
2023/12/13 14:02:07;;;;;;;21.98;11.93;;;;;;;;;;5144060;27;20054;-57
2023/12/13 14:04:34;;;;;;;21.77;11.75;;;;;;;;;;5132887;27;20515;-56
2023/12/13 14:07:00;;;;;;;23.05;11.93;;;;;;;;;;5143395;27;20055;-57
2023/12/13 14:09:27;;;;;;;21.67;11.50;;;;;;;;;;5141129;27;20051;-57
2023/12/13 14:11:53;;;;;;;24.35;12.60;;;;;;;;;;5139370;27;20051;-57
2023/12/13 14:14:23;;;;;;;21.30;11.95;;;;;;;;;;5128145;27;20051;-58
2023/12/13 14:16:49;;;;;;;23.92;11.95;;;;;;;;;;5142914;27;20151;-58
2023/12/13 14:19:16;;;;;;;23.98;12.73;;;;;;;;;;5142793;27;20504;-55